Terminal Aerodrome Forecast
Issued by NWS

Home | Current Version | Previous Version | Text Only | Print | Product List | Glossary On
Versions: 1 2 3 4 5 6 7 8 9 10 11 12 13 14 15 16 17
000
FTUS43 KMPX 041122
TAFRNH
TAF
KRNH 041122Z 0412/0512 28009KT P6SM SKC
     FM041600 29011KT P6SM SCT035
     FM041800 30012G21KT P6SM BKN035
     FM050100 29006KT P6SM FEW035
     FM050800 27004KT P6SM SKC=

USA.gov is the U.S. government's official web portal to all federal, state and local government web resources and services.